sensor_id;sensor_type;location;lat;lon;timestamp;temperature;humidity
21508;DHT22;10915;54.352;9.074;2022-09-17T00:00:24;13.90;99.90
21508;DHT22;10915;54.352;9.074;2022-09-17T00:02:53;13.80;99.90
21508;DHT22;10915;54.352;9.074;2022-09-17T00:05:23;13.90;99.90
21508;DHT22;10915;54.352;9.074;2022-09-17T00:07:52;13.90;99.90
21508;DHT22;10915;54.352;9.074;2022-09-17T00:10:19;13.90;99.90
21508;DHT22;10915;54.352;9.074;2022-09-17T00:12:45;13.90;99.90
21508;DHT22;10915;54.352;9.074;2022-09-17T00:15:12;13.90;99.90
21508;DHT22;10915;54.352;9.074;2022-09-17T00:17:38;13.90;99.90
21508;DHT22;10915;54.352;9.074;2022-09-17T00:20:05;13.90;99.90
21508;DHT22;10915;54.352;9.074;2022-09-17T00:22:33;13.90;99.90
21508;DHT22;10915;54.352;9.074;2022-09-17T00:24:59;13.90;99.90
21508;DHT22;10915;54.352;9.074;2022-09-17T00:27:24;13.90;99.90
21508;DHT22;10915;54.352;9.074;2022-09-17T00:29:50;13.90;99.90
21508;DHT22;10915;54.352;9.074;2022-09-17T00:32:16;13.80;99.90
21508;DHT22;10915;54.352;9.074;2022-09-17T00:34:42;13.80;99.90
21508;DHT22;10915;54.352;9.074;2022-09-17T00:37:08;13.80;99.90
21508;DHT22;10915;54.352;9.074;2022-09-17T00:39:33;13.70;99.90
21508;DHT22;10915;54.352;9.074;2022-09-17T00:41:59;13.70;99.90
21508;DHT22;10915;54.352;9.074;2022-09-17T00:44:52;13.70;99.90
21508;DHT22;10915;54.352;9.074;2022-09-17T00:47:34;13.70;99.90
21508;DHT22;10915;54.352;9.074;2022-09-17T00:52:45;13.70;99.90
21508;DHT22;10915;54.352;9.074;2022-09-17T00:57:48;13.60;99.90
21508;DHT22;10915;54.352;9.074;2022-09-17T01:00:16;13.60;99.90
21508;DHT22;10915;54.352;9.074;2022-09-17T01:02:42;13.50;99.90
21508;DHT22;10915;54.352;9.074;2022-09-17T01:05:09;13.60;99.90
21508;DHT22;10915;54.352;9.074;2022-09-17T01:07:52;13.60;99.90
21508;DHT22;10915;54.352;9.074;2022-09-17T01:10:45;13.60;99.90
21508;DHT22;10915;54.352;9.074;2022-09-17T01:13:29;13.60;99.90
21508;DHT22;10915;54.352;9.074;2022-09-17T01:32:36;13.50;99.90
21508;DHT22;10915;54.352;9.074;2022-09-17T01:35:34;13.50;99.90
21508;DHT22;10915;54.352;9.074;2022-09-17T01:38:09;13.50;99.90
21508;DHT22;10915;54.352;9.074;2022-09-17T01:40:49;13.50;99.90
21508;DHT22;10915;54.352;9.074;2022-09-17T01:43:31;13.50;99.90
21508;DHT22;10915;54.352;9.074;2022-09-17T01:46:06;13.50;99.90
21508;DHT22;10915;54.352;9.074;2022-09-17T01:48:36;13.50;99.90
21508;DHT22;10915;54.352;9.074;2022-09-17T01:51:08;13.50;99.90
21508;DHT22;10915;54.352;9.074;2022-09-17T01:53:45;13.50;99.90
21508;DHT22;10915;54.352;9.074;2022-09-17T01:56:14;13.50;99.90
21508;DHT22;10915;54.352;9.074;2022-09-17T01:58:49;13.50;99.90
21508;DHT22;10915;54.352;9.074;2022-09-17T02:01:18;13.50;99.90
21508;DHT22;10915;54.352;9.074;2022-09-17T02:06:25;13.50;99.90
21508;DHT22;10915;54.352;9.074;2022-09-17T02:08:57;13.40;99.90
21508;DHT22;10915;54.352;9.074;2022-09-17T02:11:24;13.40;99.90
21508;DHT22;10915;54.352;9.074;2022-09-17T02:14:07;13.40;99.90
21508;DHT22;10915;54.352;9.074;2022-09-17T02:16:36;13.40;99.90
21508;DHT22;10915;54.352;9.074;2022-09-17T02:19:31;13.30;99.90
21508;DHT22;10915;54.352;9.074;2022-09-17T02:30:22;13.30;99.90
21508;DHT22;10915;54.352;9.074;2022-09-17T02:32:48;13.40;99.90
21508;DHT22;10915;54.352;9.074;2022-09-17T02:35:14;13.40;99.90
21508;DHT22;10915;54.352;9.074;2022-09-17T02:37:41;13.30;99.90
21508;DHT22;10915;54.352;9.074;2022-09-17T02:40:09;13.30;99.90
21508;DHT22;10915;54.352;9.074;2022-09-17T02:45:17;13.30;99.90
21508;DHT22;10915;54.352;9.074;2022-09-17T02:50:22;13.30;99.90
21508;DHT22;10915;54.352;9.074;2022-09-17T02:53:03;13.30;99.90
21508;DHT22;10915;54.352;9.074;2022-09-17T02:58:20;13.30;99.90
21508;DHT22;10915;54.352;9.074;2022-09-17T03:00:49;13.30;99.90
21508;DHT22;10915;54.352;9.074;2022-09-17T03:03:37;13.30;99.90
21508;DHT22;10915;54.352;9.074;2022-09-17T03:06:04;13.30;99.90
21508;DHT22;10915;54.352;9.074;2022-09-17T03:08:39;13.30;99.90
21508;DHT22;10915;54.352;9.074;2022-09-17T03:11:06;13.30;99.90
21508;DHT22;10915;54.352;9.074;2022-09-17T03:13:33;13.20;99.90
21508;DHT22;10915;54.352;9.074;2022-09-17T03:16:00;13.20;99.90
21508;DHT22;10915;54.352;9.074;2022-09-17T03:18:26;13.20;99.90
21508;DHT22;10915;54.352;9.074;2022-09-17T03:20:51;13.20;99.90
21508;DHT22;10915;54.352;9.074;2022-09-17T03:23:17;13.20;99.90
21508;DHT22;10915;54.352;9.074;2022-09-17T03:25:43;13.10;99.90
21508;DHT22;10915;54.352;9.074;2022-09-17T03:28:10;13.20;99.90
21508;DHT22;10915;54.352;9.074;2022-09-17T03:30:35;13.20;99.90
21508;DHT22;10915;54.352;9.074;2022-09-17T03:33:01;13.30;99.90
21508;DHT22;10915;54.352;9.074;2022-09-17T03:35:27;13.20;99.90
21508;DHT22;10915;54.352;9.074;2022-09-17T03:37:52;13.20;99.90
21508;DHT22;10915;54.352;9.074;2022-09-17T03:40:18;13.20;99.90
21508;DHT22;10915;54.352;9.074;2022-09-17T03:42:44;13.10;99.90
21508;DHT22;10915;54.352;9.074;2022-09-17T03:45:10;13.10;99.90
21508;DHT22;10915;54.352;9.074;2022-09-17T03:47:36;13.10;99.90
21508;DHT22;10915;54.352;9.074;2022-09-17T03:50:03;13.10;99.90
21508;DHT22;10915;54.352;9.074;2022-09-17T03:52:29;13.10;99.90
21508;DHT22;10915;54.352;9.074;2022-09-17T03:54:54;13.10;99.90
21508;DHT22;10915;54.352;9.074;2022-09-17T03:57:20;13.10;99.90
21508;DHT22;10915;54.352;9.074;2022-09-17T03:59:47;13.10;99.90
21508;DHT22;10915;54.352;9.074;2022-09-17T04:02:13;13.10;99.90
21508;DHT22;10915;54.352;9.074;2022-09-17T04:04:38;13.10;99.90
21508;DHT22;10915;54.352;9.074;2022-09-17T04:07:04;13.10;99.90
21508;DHT22;10915;54.352;9.074;2022-09-17T04:09:30;13.10;99.90
21508;DHT22;10915;54.352;9.074;2022-09-17T04:11:56;13.10;99.90
21508;DHT22;10915;54.352;9.074;2022-09-17T04:14:22;13.10;99.90
21508;DHT22;10915;54.352;9.074;2022-09-17T04:16:47;13.20;99.90
21508;DHT22;10915;54.352;9.074;2022-09-17T04:19:13;13.10;99.90
21508;DHT22;10915;54.352;9.074;2022-09-17T04:21:38;13.10;99.90
21508;DHT22;10915;54.352;9.074;2022-09-17T04:24:04;13.10;99.90
21508;DHT22;10915;54.352;9.074;2022-09-17T04:26:30;13.10;99.90
21508;DHT22;10915;54.352;9.074;2022-09-17T04:28:55;13.20;99.90
21508;DHT22;10915;54.352;9.074;2022-09-17T04:31:21;13.10;99.90
21508;DHT22;10915;54.352;9.074;2022-09-17T04:33:49;13.20;99.90
21508;DHT22;10915;54.352;9.074;2022-09-17T04:36:15;13.20;99.90
21508;DHT22;10915;54.352;9.074;2022-09-17T04:38:41;13.20;99.90
21508;DHT22;10915;54.352;9.074;2022-09-17T04:41:06;13.20;99.90
21508;DHT22;10915;54.352;9.074;2022-09-17T04:43:33;13.20;99.90
21508;DHT22;10915;54.352;9.074;2022-09-17T04:45:58;13.10;99.90
21508;DHT22;10915;54.352;9.074;2022-09-17T04:48:24;13.10;99.90
21508;DHT22;10915;54.352;9.074;2022-09-17T04:50:49;13.10;99.90
21508;DHT22;10915;54.352;9.074;2022-09-17T04:53:15;13.00;99.90
21508;DHT22;10915;54.352;9.074;2022-09-17T04:55:42;13.00;99.90
21508;DHT22;10915;54.352;9.074;2022-09-17T04:58:09;13.00;99.90
21508;DHT22;10915;54.352;9.074;2022-09-17T05:00:34;12.90;99.90
21508;DHT22;10915;54.352;9.074;2022-09-17T05:03:00;12.90;99.90
21508;DHT22;10915;54.352;9.074;2022-09-17T05:05:26;12.90;99.90
21508;DHT22;10915;54.352;9.074;2022-09-17T05:07:52;12.90;99.90
21508;DHT22;10915;54.352;9.074;2022-09-17T05:10:19;12.80;99.90
21508;DHT22;10915;54.352;9.074;2022-09-17T05:12:52;12.80;99.90
21508;DHT22;10915;54.352;9.074;2022-09-17T05:15:19;12.80;99.90
21508;DHT22;10915;54.352;9.074;2022-09-17T05:17:45;12.80;99.90
21508;DHT22;10915;54.352;9.074;2022-09-17T05:20:11;12.80;99.90
21508;DHT22;10915;54.352;9.074;2022-09-17T05:22:45;12.80;99.90
21508;DHT22;10915;54.352;9.074;2022-09-17T05:25:13;12.80;99.90
21508;DHT22;10915;54.352;9.074;2022-09-17T05:27:39;12.80;99.90
21508;DHT22;10915;54.352;9.074;2022-09-17T05:30:06;12.80;99.90
21508;DHT22;10915;54.352;9.074;2022-09-17T05:32:33;12.90;99.90
21508;DHT22;10915;54.352;9.074;2022-09-17T05:34:59;12.90;99.90
21508;DHT22;10915;54.352;9.074;2022-09-17T05:37:24;12.90;99.90
21508;DHT22;10915;54.352;9.074;2022-09-17T05:39:50;12.90;99.90
21508;DHT22;10915;54.352;9.074;2022-09-17T05:42:16;13.00;99.90
21508;DHT22;10915;54.352;9.074;2022-09-17T05:44:42;13.00;99.90
21508;DHT22;10915;54.352;9.074;2022-09-17T05:47:08;13.10;99.90
21508;DHT22;10915;54.352;9.074;2022-09-17T05:49:34;13.10;99.90
21508;DHT22;10915;54.352;9.074;2022-09-17T05:51:59;13.10;99.90
21508;DHT22;10915;54.352;9.074;2022-09-17T05:54:26;13.10;99.90
21508;DHT22;10915;54.352;9.074;2022-09-17T05:56:52;13.10;99.90
21508;DHT22;10915;54.352;9.074;2022-09-17T05:59:18;13.10;99.90
21508;DHT22;10915;54.352;9.074;2022-09-17T06:01:44;13.20;99.90
21508;DHT22;10915;54.352;9.074;2022-09-17T06:04:09;13.20;99.90
21508;DHT22;10915;54.352;9.074;2022-09-17T06:06:35;13.20;99.90
21508;DHT22;10915;54.352;9.074;2022-09-17T06:09:06;13.20;99.90
21508;DHT22;10915;54.352;9.074;2022-09-17T06:11:33;13.20;99.90
21508;DHT22;10915;54.352;9.074;2022-09-17T06:13:59;13.30;99.90
21508;DHT22;10915;54.352;9.074;2022-09-17T06:16:25;13.30;99.90
21508;DHT22;10915;54.352;9.074;2022-09-17T06:18:51;13.30;99.90
21508;DHT22;10915;54.352;9.074;2022-09-17T06:21:17;13.30;99.90
21508;DHT22;10915;54.352;9.074;2022-09-17T06:23:44;13.30;99.90
21508;DHT22;10915;54.352;9.074;2022-09-17T06:26:10;13.20;99.90
21508;DHT22;10915;54.352;9.074;2022-09-17T06:28:36;13.20;99.90
21508;DHT22;10915;54.352;9.074;2022-09-17T06:31:06;13.20;99.90
21508;DHT22;10915;54.352;9.074;2022-09-17T06:33:32;13.20;99.90
21508;DHT22;10915;54.352;9.074;2022-09-17T06:36:00;13.20;99.90
21508;DHT22;10915;54.352;9.074;2022-09-17T06:38:30;13.10;99.90
21508;DHT22;10915;54.352;9.074;2022-09-17T06:40:56;13.10;99.90
21508;DHT22;10915;54.352;9.074;2022-09-17T06:43:22;13.10;99.90
21508;DHT22;10915;54.352;9.074;2022-09-17T06:45:52;13.10;99.90
21508;DHT22;10915;54.352;9.074;2022-09-17T06:48:19;13.10;99.90
21508;DHT22;10915;54.352;9.074;2022-09-17T06:50:45;13.20;99.90
21508;DHT22;10915;54.352;9.074;2022-09-17T06:53:10;13.20;99.90
21508;DHT22;10915;54.352;9.074;2022-09-17T06:55:36;13.20;99.90
21508;DHT22;10915;54.352;9.074;2022-09-17T06:58:01;13.30;99.90
21508;DHT22;10915;54.352;9.074;2022-09-17T07:00:27;13.20;99.90
21508;DHT22;10915;54.352;9.074;2022-09-17T07:02:59;13.20;99.90
21508;DHT22;10915;54.352;9.074;2022-09-17T07:05:26;13.20;99.90
21508;DHT22;10915;54.352;9.074;2022-09-17T07:07:53;13.20;99.90
21508;DHT22;10915;54.352;9.074;2022-09-17T07:10:19;13.20;99.90
21508;DHT22;10915;54.352;9.074;2022-09-17T07:12:45;13.30;99.90
21508;DHT22;10915;54.352;9.074;2022-09-17T07:15:11;13.30;99.90
21508;DHT22;10915;54.352;9.074;2022-09-17T07:17:38;13.30;99.90
21508;DHT22;10915;54.352;9.074;2022-09-17T07:20:05;13.40;99.90
21508;DHT22;10915;54.352;9.074;2022-09-17T07:22:31;13.40;99.90
21508;DHT22;10915;54.352;9.074;2022-09-17T07:24:57;13.40;99.90
21508;DHT22;10915;54.352;9.074;2022-09-17T07:27:23;13.40;99.90
21508;DHT22;10915;54.352;9.074;2022-09-17T07:29:51;13.50;99.90
21508;DHT22;10915;54.352;9.074;2022-09-17T07:32:16;13.50;99.90
21508;DHT22;10915;54.352;9.074;2022-09-17T07:34:42;13.60;99.90
21508;DHT22;10915;54.352;9.074;2022-09-17T07:37:07;13.70;99.90
21508;DHT22;10915;54.352;9.074;2022-09-17T07:39:33;13.80;99.90
21508;DHT22;10915;54.352;9.074;2022-09-17T07:41:59;13.90;99.90
21508;DHT22;10915;54.352;9.074;2022-09-17T07:44:24;13.90;99.90
21508;DHT22;10915;54.352;9.074;2022-09-17T07:46:50;14.00;99.90
21508;DHT22;10915;54.352;9.074;2022-09-17T07:49:16;14.00;99.90
21508;DHT22;10915;54.352;9.074;2022-09-17T07:51:41;14.20;99.90
21508;DHT22;10915;54.352;9.074;2022-09-17T07:54:07;14.20;99.90
21508;DHT22;10915;54.352;9.074;2022-09-17T07:56:33;14.30;99.90
21508;DHT22;10915;54.352;9.074;2022-09-17T07:59:00;14.50;99.90
21508;DHT22;10915;54.352;9.074;2022-09-17T08:01:26;14.60;99.90
21508;DHT22;10915;54.352;9.074;2022-09-17T08:03:53;14.60;99.90
21508;DHT22;10915;54.352;9.074;2022-09-17T08:06:21;14.60;99.90
21508;DHT22;10915;54.352;9.074;2022-09-17T08:08:47;14.60;99.90
21508;DHT22;10915;54.352;9.074;2022-09-17T08:11:15;14.60;99.90
21508;DHT22;10915;54.352;9.074;2022-09-17T08:13:41;14.60;99.90
21508;DHT22;10915;54.352;9.074;2022-09-17T08:16:10;14.60;99.90
21508;DHT22;10915;54.352;9.074;2022-09-17T08:18:40;14.60;99.90
21508;DHT22;10915;54.352;9.074;2022-09-17T08:21:08;14.60;99.90
21508;DHT22;10915;54.352;9.074;2022-09-17T08:23:35;14.60;99.90
21508;DHT22;10915;54.352;9.074;2022-09-17T08:26:02;14.60;99.90
21508;DHT22;10915;54.352;9.074;2022-09-17T08:28:30;14.50;99.90
21508;DHT22;10915;54.352;9.074;2022-09-17T08:31:04;14.50;99.90
21508;DHT22;10915;54.352;9.074;2022-09-17T08:33:34;14.50;99.90
21508;DHT22;10915;54.352;9.074;2022-09-17T08:36:00;14.50;99.90
21508;DHT22;10915;54.352;9.074;2022-09-17T08:38:27;14.50;99.90
21508;DHT22;10915;54.352;9.074;2022-09-17T08:43:31;14.30;99.90
21508;DHT22;10915;54.352;9.074;2022-09-17T08:45:58;13.70;99.90
21508;DHT22;10915;54.352;9.074;2022-09-17T08:48:33;13.70;99.90
21508;DHT22;10915;54.352;9.074;2022-09-17T08:51:23;13.80;99.90
21508;DHT22;10915;54.352;9.074;2022-09-17T08:54:16;13.80;99.90
21508;DHT22;10915;54.352;9.074;2022-09-17T08:56:44;13.80;99.90
21508;DHT22;10915;54.352;9.074;2022-09-17T09:02:24;13.80;99.90
21508;DHT22;10915;54.352;9.074;2022-09-17T09:05:00;13.80;99.90
21508;DHT22;10915;54.352;9.074;2022-09-17T09:07:30;13.80;99.90
21508;DHT22;10915;54.352;9.074;2022-09-17T09:10:19;13.80;99.90
21508;DHT22;10915;54.352;9.074;2022-09-17T09:12:48;13.90;99.90
21508;DHT22;10915;54.352;9.074;2022-09-17T09:18:00;14.10;99.90
21508;DHT22;10915;54.352;9.074;2022-09-17T09:20:35;14.10;99.90
21508;DHT22;10915;54.352;9.074;2022-09-17T09:23:20;14.20;99.90
21508;DHT22;10915;54.352;9.074;2022-09-17T09:34:45;14.40;99.90
21508;DHT22;10915;54.352;9.074;2022-09-17T09:39:41;14.60;99.90
21508;DHT22;10915;54.352;9.074;2022-09-17T09:44:40;14.50;99.90
21508;DHT22;10915;54.352;9.074;2022-09-17T10:00:47;14.90;99.90
21508;DHT22;10915;54.352;9.074;2022-09-17T10:03:21;15.10;99.90
21508;DHT22;10915;54.352;9.074;2022-09-17T10:05:58;15.20;99.90
21508;DHT22;10915;54.352;9.074;2022-09-17T10:08:24;15.30;99.90
21508;DHT22;10915;54.352;9.074;2022-09-17T10:10:54;15.40;99.90
21508;DHT22;10915;54.352;9.074;2022-09-17T10:13:20;15.40;99.90
21508;DHT22;10915;54.352;9.074;2022-09-17T10:15:45;15.30;99.90
21508;DHT22;10915;54.352;9.074;2022-09-17T10:20:59;15.30;99.90
21508;DHT22;10915;54.352;9.074;2022-09-17T10:23:27;15.50;99.90
21508;DHT22;10915;54.352;9.074;2022-09-17T10:25:54;15.70;99.90
21508;DHT22;10915;54.352;9.074;2022-09-17T10:28:30;15.80;99.90
21508;DHT22;10915;54.352;9.074;2022-09-17T10:30:59;15.90;99.90
21508;DHT22;10915;54.352;9.074;2022-09-17T10:33:28;16.00;99.90
21508;DHT22;10915;54.352;9.074;2022-09-17T10:36:00;16.10;99.90
21508;DHT22;10915;54.352;9.074;2022-09-17T10:38:46;16.20;99.90
21508;DHT22;10915;54.352;9.074;2022-09-17T10:41:17;16.30;99.90
21508;DHT22;10915;54.352;9.074;2022-09-17T10:43:44;16.50;99.90
21508;DHT22;10915;54.352;9.074;2022-09-17T10:46:24;16.60;99.90
21508;DHT22;10915;54.352;9.074;2022-09-17T10:49:36;16.50;99.90
21508;DHT22;10915;54.352;9.074;2022-09-17T11:00:19;15.60;99.90
21508;DHT22;10915;54.352;9.074;2022-09-17T11:06:09;15.20;99.90
21508;DHT22;10915;54.352;9.074;2022-09-17T11:11:27;14.80;99.90
21508;DHT22;10915;54.352;9.074;2022-09-17T11:14:09;14.90;99.90
21508;DHT22;10915;54.352;9.074;2022-09-17T11:20:03;15.30;99.90
21508;DHT22;10915;54.352;9.074;2022-09-17T11:25:53;16.00;99.90
21508;DHT22;10915;54.352;9.074;2022-09-17T11:36:32;16.90;99.90
21508;DHT22;10915;54.352;9.074;2022-09-17T11:39:12;17.10;99.90
21508;DHT22;10915;54.352;9.074;2022-09-17T11:41:42;17.30;99.90
21508;DHT22;10915;54.352;9.074;2022-09-17T11:46:41;17.50;99.90
21508;DHT22;10915;54.352;9.074;2022-09-17T11:50:20;17.60;99.90
21508;DHT22;10915;54.352;9.074;2022-09-17T11:54:58;17.90;99.90
21508;DHT22;10915;54.352;9.074;2022-09-17T11:57:30;17.80;99.90
21508;DHT22;10915;54.352;9.074;2022-09-17T12:00:02;17.90;99.90
21508;DHT22;10915;54.352;9.074;2022-09-17T12:02:51;17.80;99.90
21508;DHT22;10915;54.352;9.074;2022-09-17T12:13:39;17.50;99.90
21508;DHT22;10915;54.352;9.074;2022-09-17T12:19:03;17.20;99.90
21508;DHT22;10915;54.352;9.074;2022-09-17T12:21:43;17.00;99.90
21508;DHT22;10915;54.352;9.074;2022-09-17T12:24:24;16.70;99.90
21508;DHT22;10915;54.352;9.074;2022-09-17T12:32:28;16.00;99.90
21508;DHT22;10915;54.352;9.074;2022-09-17T12:37:39;15.80;99.90
21508;DHT22;10915;54.352;9.074;2022-09-17T12:42:58;15.60;99.90
21508;DHT22;10915;54.352;9.074;2022-09-17T12:57:39;14.90;99.90
21508;DHT22;10915;54.352;9.074;2022-09-17T13:00:14;14.80;99.90
21508;DHT22;10915;54.352;9.074;2022-09-17T13:05:34;14.70;99.90
21508;DHT22;10915;54.352;9.074;2022-09-17T13:15:59;14.40;99.90
21508;DHT22;10915;54.352;9.074;2022-09-17T13:21:24;14.30;99.90
21508;DHT22;10915;54.352;9.074;2022-09-17T13:23:54;14.20;99.90
21508;DHT22;10915;54.352;9.074;2022-09-17T13:26:33;14.20;99.90
21508;DHT22;10915;54.352;9.074;2022-09-17T13:28:59;14.20;99.90
21508;DHT22;10915;54.352;9.074;2022-09-17T13:34:00;14.30;99.90
21508;DHT22;10915;54.352;9.074;2022-09-17T13:36:47;14.20;99.90
21508;DHT22;10915;54.352;9.074;2022-09-17T13:42:07;14.30;99.90
21508;DHT22;10915;54.352;9.074;2022-09-17T13:44:40;14.30;99.90
21508;DHT22;10915;54.352;9.074;2022-09-17T13:47:14;14.30;99.90
21508;DHT22;10915;54.352;9.074;2022-09-17T13:49:50;14.30;99.90
21508;DHT22;10915;54.352;9.074;2022-09-17T13:52:47;14.30;99.90
21508;DHT22;10915;54.352;9.074;2022-09-17T13:55:48;14.30;99.90
21508;DHT22;10915;54.352;9.074;2022-09-17T14:05:56;14.40;99.90
21508;DHT22;10915;54.352;9.074;2022-09-17T14:08:28;13.70;99.90
21508;DHT22;10915;54.352;9.074;2022-09-17T14:10:57;12.50;99.90
21508;DHT22;10915;54.352;9.074;2022-09-17T14:13:38;11.80;99.90
21508;DHT22;10915;54.352;9.074;2022-09-17T14:16:44;11.60;99.90
21508;DHT22;10915;54.352;9.074;2022-09-17T14:21:42;11.70;99.90
21508;DHT22;10915;54.352;9.074;2022-09-17T14:24:22;11.70;99.90
21508;DHT22;10915;54.352;9.074;2022-09-17T14:30:02;11.90;99.90
21508;DHT22;10915;54.352;9.074;2022-09-17T14:35:44;12.00;99.90
21508;DHT22;10915;54.352;9.074;2022-09-17T14:41:17;12.00;99.90
21508;DHT22;10915;54.352;9.074;2022-09-17T14:48:42;12.20;99.90
21508;DHT22;10915;54.352;9.074;2022-09-17T14:51:26;12.30;99.90
21508;DHT22;10915;54.352;9.074;2022-09-17T14:54:18;12.50;99.90
21508;DHT22;10915;54.352;9.074;2022-09-17T14:56:59;12.60;99.90
21508;DHT22;10915;54.352;9.074;2022-09-17T14:59:53;12.70;99.90
21508;DHT22;10915;54.352;9.074;2022-09-17T15:05:01;13.40;99.90
21508;DHT22;10915;54.352;9.074;2022-09-17T15:07:28;13.80;99.90
21508;DHT22;10915;54.352;9.074;2022-09-17T15:10:04;14.10;99.90
21508;DHT22;10915;54.352;9.074;2022-09-17T15:12:30;14.40;99.90
21508;DHT22;10915;54.352;9.074;2022-09-17T15:14:56;14.60;99.90
21508;DHT22;10915;54.352;9.074;2022-09-17T15:17:22;14.70;99.90
21508;DHT22;10915;54.352;9.074;2022-09-17T15:19:51;14.80;99.90
21508;DHT22;10915;54.352;9.074;2022-09-17T15:22:36;14.80;99.90
21508;DHT22;10915;54.352;9.074;2022-09-17T15:25:05;15.00;99.90
21508;DHT22;10915;54.352;9.074;2022-09-17T15:27:36;15.00;99.90
21508;DHT22;10915;54.352;9.074;2022-09-17T15:30:17;15.10;99.90
21508;DHT22;10915;54.352;9.074;2022-09-17T15:32:55;15.10;99.90
21508;DHT22;10915;54.352;9.074;2022-09-17T15:35:31;15.20;99.90
21508;DHT22;10915;54.352;9.074;2022-09-17T15:38:02;15.20;99.90
21508;DHT22;10915;54.352;9.074;2022-09-17T15:40:37;15.20;99.90
21508;DHT22;10915;54.352;9.074;2022-09-17T15:45:51;15.20;99.90
21508;DHT22;10915;54.352;9.074;2022-09-17T15:50:59;15.20;99.90
21508;DHT22;10915;54.352;9.074;2022-09-17T15:53:29;15.10;99.90
21508;DHT22;10915;54.352;9.074;2022-09-17T15:58:29;14.90;99.90
21508;DHT22;10915;54.352;9.074;2022-09-17T16:08:43;14.70;99.90
21508;DHT22;10915;54.352;9.074;2022-09-17T16:11:12;14.70;99.90
21508;DHT22;10915;54.352;9.074;2022-09-17T16:13:37;14.70;99.90
21508;DHT22;10915;54.352;9.074;2022-09-17T16:16:03;14.70;99.90
21508;DHT22;10915;54.352;9.074;2022-09-17T16:18:29;14.60;99.90
21508;DHT22;10915;54.352;9.074;2022-09-17T16:20:55;14.50;99.90
21508;DHT22;10915;54.352;9.074;2022-09-17T16:23:21;14.40;99.90
21508;DHT22;10915;54.352;9.074;2022-09-17T16:25:47;14.40;99.90
21508;DHT22;10915;54.352;9.074;2022-09-17T16:28:15;14.40;99.90
21508;DHT22;10915;54.352;9.074;2022-09-17T16:30:45;14.40;99.90
21508;DHT22;10915;54.352;9.074;2022-09-17T16:33:13;14.30;99.90
21508;DHT22;10915;54.352;9.074;2022-09-17T16:35:39;14.30;99.90
21508;DHT22;10915;54.352;9.074;2022-09-17T16:38:04;14.30;99.90
21508;DHT22;10915;54.352;9.074;2022-09-17T16:40:30;14.10;99.90
21508;DHT22;10915;54.352;9.074;2022-09-17T16:42:59;14.10;99.90
21508;DHT22;10915;54.352;9.074;2022-09-17T16:45:26;14.00;99.90
21508;DHT22;10915;54.352;9.074;2022-09-17T16:47:52;13.90;99.90
21508;DHT22;10915;54.352;9.074;2022-09-17T16:50:17;13.90;99.90
21508;DHT22;10915;54.352;9.074;2022-09-17T16:52:43;13.70;99.90
21508;DHT22;10915;54.352;9.074;2022-09-17T16:55:12;13.80;99.90
21508;DHT22;10915;54.352;9.074;2022-09-17T16:57:38;13.60;99.90
21508;DHT22;10915;54.352;9.074;2022-09-17T17:00:08;13.70;99.90
21508;DHT22;10915;54.352;9.074;2022-09-17T17:02:39;13.70;99.90
21508;DHT22;10915;54.352;9.074;2022-09-17T17:05:05;13.80;99.90
21508;DHT22;10915;54.352;9.074;2022-09-17T17:07:31;13.70;99.90
21508;DHT22;10915;54.352;9.074;2022-09-17T17:09:57;13.40;99.90
21508;DHT22;10915;54.352;9.074;2022-09-17T17:12:26;13.20;99.90
21508;DHT22;10915;54.352;9.074;2022-09-17T17:14:52;13.30;99.90
21508;DHT22;10915;54.352;9.074;2022-09-17T17:17:18;13.40;99.90
21508;DHT22;10915;54.352;9.074;2022-09-17T17:19:44;13.40;99.90
21508;DHT22;10915;54.352;9.074;2022-09-17T17:22:13;13.40;99.90
21508;DHT22;10915;54.352;9.074;2022-09-17T17:24:39;13.40;99.90
21508;DHT22;10915;54.352;9.074;2022-09-17T17:27:05;13.50;99.90
21508;DHT22;10915;54.352;9.074;2022-09-17T17:29:33;13.50;99.90
21508;DHT22;10915;54.352;9.074;2022-09-17T17:32:00;13.60;99.90
21508;DHT22;10915;54.352;9.074;2022-09-17T17:34:25;13.60;99.90
21508;DHT22;10915;54.352;9.074;2022-09-17T17:36:51;13.60;99.90
21508;DHT22;10915;54.352;9.074;2022-09-17T17:39:17;13.60;99.90
21508;DHT22;10915;54.352;9.074;2022-09-17T17:41:42;13.60;99.90
21508;DHT22;10915;54.352;9.074;2022-09-17T17:44:08;13.60;99.90
21508;DHT22;10915;54.352;9.074;2022-09-17T17:46:37;13.60;99.90
21508;DHT22;10915;54.352;9.074;2022-09-17T17:49:03;13.60;99.90
21508;DHT22;10915;54.352;9.074;2022-09-17T17:51:29;13.60;99.90
21508;DHT22;10915;54.352;9.074;2022-09-17T17:53:54;13.60;99.90
21508;DHT22;10915;54.352;9.074;2022-09-17T17:56:20;13.60;99.90
21508;DHT22;10915;54.352;9.074;2022-09-17T17:58:46;13.70;99.90
21508;DHT22;10915;54.352;9.074;2022-09-17T18:01:15;13.70;99.90
21508;DHT22;10915;54.352;9.074;2022-09-17T18:03:42;13.70;99.90
21508;DHT22;10915;54.352;9.074;2022-09-17T18:06:07;13.70;99.90
21508;DHT22;10915;54.352;9.074;2022-09-17T18:08:38;13.60;99.90
21508;DHT22;10915;54.352;9.074;2022-09-17T18:11:05;13.60;99.90
21508;DHT22;10915;54.352;9.074;2022-09-17T18:13:36;13.60;99.90
21508;DHT22;10915;54.352;9.074;2022-09-17T18:16:03;13.60;99.90
21508;DHT22;10915;54.352;9.074;2022-09-17T18:18:37;13.50;99.90
21508;DHT22;10915;54.352;9.074;2022-09-17T18:21:05;13.50;99.90
21508;DHT22;10915;54.352;9.074;2022-09-17T18:23:34;13.40;99.90
21508;DHT22;10915;54.352;9.074;2022-09-17T18:26:00;13.40;99.90
21508;DHT22;10915;54.352;9.074;2022-09-17T18:28:27;13.40;99.90
21508;DHT22;10915;54.352;9.074;2022-09-17T18:30:54;13.40;99.90
21508;DHT22;10915;54.352;9.074;2022-09-17T18:33:24;13.30;99.90
21508;DHT22;10915;54.352;9.074;2022-09-17T18:35:52;13.30;99.90
21508;DHT22;10915;54.352;9.074;2022-09-17T18:38:22;13.30;99.90
21508;DHT22;10915;54.352;9.074;2022-09-17T18:40:48;13.30;99.90
21508;DHT22;10915;54.352;9.074;2022-09-17T18:43:14;13.30;99.90
21508;DHT22;10915;54.352;9.074;2022-09-17T18:45:40;13.30;99.90
21508;DHT22;10915;54.352;9.074;2022-09-17T18:48:07;13.30;99.90
21508;DHT22;10915;54.352;9.074;2022-09-17T18:50:35;13.30;99.90
21508;DHT22;10915;54.352;9.074;2022-09-17T18:53:00;13.20;99.90
21508;DHT22;10915;54.352;9.074;2022-09-17T18:55:28;13.20;99.90
21508;DHT22;10915;54.352;9.074;2022-09-17T18:57:53;13.20;99.90
21508;DHT22;10915;54.352;9.074;2022-09-17T19:00:20;13.10;99.90
21508;DHT22;10915;54.352;9.074;2022-09-17T19:02:49;13.10;99.90
21508;DHT22;10915;54.352;9.074;2022-09-17T19:05:16;13.10;99.90
21508;DHT22;10915;54.352;9.074;2022-09-17T19:07:45;13.10;99.90
21508;DHT22;10915;54.352;9.074;2022-09-17T19:10:12;12.90;99.90
21508;DHT22;10915;54.352;9.074;2022-09-17T19:12:39;12.90;99.90
21508;DHT22;10915;54.352;9.074;2022-09-17T19:15:05;12.90;99.90